Time;durP1;ratioP1;P1;durP2;ratioP2;P2;SDS_P1;SDS_P2;PMS_P1;PMS_P2;Temp;Humidity;BMP_temperature;BMP_pressure;BME280_temperature;BME280_humidity;BME280_pressure;Samples;Min_cycle;Max_cycle;Signal;HPM_P1;HPM_P2
2024/01/28 00:01:37;;;;;;;4.15;2.00;;;;;;;1.16;100.00;100210.84;4484444;31;20100;-74
2024/01/28 00:04:05;;;;;;;5.35;2.25;;;;;;;1.17;100.00;100216.87;4485191;31;20119;-74
2024/01/28 00:06:33;;;;;;;4.30;2.05;;;;;;;1.15;100.00;100213.47;4484981;31;20247;-74
2024/01/28 00:09:01;;;;;;;4.90;2.10;;;;;;;1.13;100.00;100208.34;4485121;31;20100;-75
2024/01/28 00:11:29;;;;;;;6.25;2.15;;;;;;;1.11;100.00;100222.19;4483752;32;20080;-74
2024/01/28 00:14:16;;;;;;;11.63;2.78;;;;;;;1.09;100.00;100216.22;4485204;32;20092;-74
2024/01/28 00:16:44;;;;;;;5.28;2.05;;;;;;;1.05;100.00;100233.53;4484940;31;20119;-74
2024/01/28 00:19:12;;;;;;;5.10;2.10;;;;;;;0.99;100.00;100228.53;4494223;31;20084;-74
2024/01/28 00:21:39;;;;;;;8.10;1.90;;;;;;;0.93;100.00;100229.53;4501057;31;20251;-74
2024/01/28 00:24:09;;;;;;;6.10;2.22;;;;;;;0.93;100.00;100233.84;4500952;31;20130;-74
2024/01/28 00:26:38;;;;;;;9.55;2.35;;;;;;;0.88;100.00;100236.56;4500617;31;20163;-75
2024/01/28 00:29:06;;;;;;;8.65;2.47;;;;;;;0.85;100.00;100240.03;4500777;31;20175;-74
2024/01/28 00:31:34;;;;;;;11.88;2.12;;;;;;;0.85;100.00;100232.31;4486530;31;20118;-74
2024/01/28 00:34:01;;;;;;;6.70;1.48;;;;;;;0.84;100.00;100243.50;4484945;31;20116;-74
2024/01/28 00:36:29;;;;;;;5.82;2.78;;;;;;;0.87;100.00;100243.44;4484633;31;20108;-74
2024/01/28 00:38:57;;;;;;;6.35;2.37;;;;;;;0.86;100.00;100246.91;4484933;31;20089;-74
2024/01/28 00:41:28;;;;;;;10.32;3.40;;;;;;;0.85;100.00;100254.69;4484976;31;20127;-74
2024/01/28 00:43:58;;;;;;;7.97;2.12;;;;;;;0.81;100.00;100255.66;4484813;31;20084;-74
2024/01/28 00:46:25;;;;;;;6.60;2.22;;;;;;;0.78;100.00;100256.56;4484875;31;20127;-74
2024/01/28 00:48:53;;;;;;;6.25;2.15;;;;;;;0.77;100.00;100265.16;4484628;31;20837;-74
2024/01/28 00:51:21;;;;;;;4.18;1.70;;;;;;;0.82;100.00;100258.19;4484672;31;20097;-74
2024/01/28 00:53:50;;;;;;;11.00;2.70;;;;;;;0.78;100.00;100263.47;4484813;31;20126;-74
2024/01/28 00:56:17;;;;;;;5.22;2.10;;;;;;;0.76;100.00;100272.94;4484515;31;20527;-74
2024/01/28 00:58:45;;;;;;;8.25;2.42;;;;;;;0.79;100.00;100259.97;4484735;31;20448;-74
2024/01/28 01:01:13;;;;;;;4.22;1.73;;;;;;;0.76;100.00;100242.88;4484606;31;20163;-74
2024/01/28 01:03:40;;;;;;;7.28;2.17;;;;;;;0.76;100.00;100252.31;4484586;31;20119;-74
2024/01/28 01:06:11;;;;;;;8.50;2.05;;;;;;;0.74;100.00;100254.94;4484752;31;20092;-74
2024/01/28 01:08:38;;;;;;;4.60;2.35;;;;;;;0.75;100.00;100255.81;4484346;31;20975;-74
2024/01/28 01:11:08;;;;;;;3.33;1.77;;;;;;;0.77;100.00;100265.16;4484382;31;20422;-74
2024/01/28 01:13:36;;;;;;;7.10;2.97;;;;;;;0.75;100.00;100260.97;4483697;31;20081;-74
2024/01/28 01:16:05;;;;;;;7.82;2.10;;;;;;;0.73;100.00;100268.72;4484649;31;20096;-74
2024/01/28 01:18:32;;;;;;;8.77;2.10;;;;;;;0.65;100.00;100265.47;4489233;31;20096;-74
2024/01/28 01:21:00;;;;;;;5.53;1.83;;;;;;;0.58;100.00;100285.41;4500248;31;20085;-74
2024/01/28 01:23:29;;;;;;;5.03;2.10;;;;;;;0.49;100.00;100276.16;4500208;31;20473;-74
2024/01/28 01:25:57;;;;;;;4.80;2.47;;;;;;;0.49;100.00;100275.31;4500251;31;20155;-74
2024/01/28 01:28:31;;;;;;;9.32;3.10;;;;;;;0.55;100.00;100269.19;4500012;31;20084;-74
2024/01/28 01:31:01;;;;;;;7.07;2.78;;;;;;;0.58;100.00;100269.94;4490231;31;20103;-74
2024/01/28 01:33:29;;;;;;;4.65;2.03;;;;;;;0.52;100.00;100276.09;4484301;31;20445;-74
2024/01/28 01:35:57;;;;;;;7.40;1.83;;;;;;;0.52;100.00;100276.09;4484265;32;20092;-74
2024/01/28 01:38:24;;;;;;;7.32;1.92;;;;;;;0.55;100.00;100271.75;4484069;31;20478;-74
2024/01/28 01:40:53;;;;;;;6.43;1.70;;;;;;;0.56;100.00;100274.31;4484292;31;20092;-74
2024/01/28 01:43:21;;;;;;;7.75;2.50;;;;;;;0.58;100.00;100274.28;4484075;32;20088;-74
2024/01/28 01:45:49;;;;;;;6.25;1.80;;;;;;;0.60;100.00;100269.91;4484483;31;20100;-74
2024/01/28 01:48:19;;;;;;;3.30;2.30;;;;;;;0.58;100.00;100279.44;4484028;32;20084;-74
2024/01/28 01:50:47;;;;;;;14.80;2.55;;;;;;;0.54;100.00;100268.31;4484435;31;20115;-74
2024/01/28 01:53:15;;;;;;;9.73;3.00;;;;;;;0.51;100.00;100283.88;4484045;31;20165;-74
2024/01/28 01:55:43;;;;;;;4.50;1.50;;;;;;;0.46;100.00;100291.72;4483011;32;20466;-74
2024/01/28 01:58:14;;;;;;;10.98;2.20;;;;;;;0.45;100.00;100287.44;4484022;32;20096;-74
2024/01/28 02:00:41;;;;;;;7.25;2.08;;;;;;;0.42;100.00;100281.50;4482865;32;20452;-74
2024/01/28 02:03:10;;;;;;;8.68;2.00;;;;;;;0.40;100.00;100278.97;4483819;31;20104;-74
2024/01/28 02:05:38;;;;;;;4.45;1.73;;;;;;;0.34;100.00;100279.09;4484047;31;20107;-74
2024/01/28 02:08:06;;;;;;;9.68;2.12;;;;;;;0.28;100.00;100282.66;4483598;31;20123;-74
2024/01/28 02:10:34;;;;;;;8.25;2.67;;;;;;;0.23;100.00;100281.06;4483842;31;20093;-75
2024/01/28 02:13:01;;;;;;;4.68;2.03;;;;;;;0.08;100.00;100280.53;4483998;31;20096;-74
2024/01/28 02:15:37;;;;;;;6.05;2.45;;;;;;;0.06;100.00;100287.47;4484075;31;20100;-74
2024/01/28 02:18:06;;;;;;;6.90;2.55;;;;;;;0.01;100.00;100284.13;4485886;31;20471;-74
2024/01/28 02:20:34;;;;;;;6.07;2.10;;;;;;;-0.03;100.00;100297.94;4499428;31;20096;-74
2024/01/28 02:23:03;;;;;;;3.22;1.77;;;;;;;-0.02;100.00;100299.62;4499835;31;20434;-74
2024/01/28 02:25:33;;;;;;;8.18;2.62;;;;;;;0.00;100.00;100297.91;4501630;31;20501;-74
2024/01/28 02:28:00;;;;;;;6.80;2.28;;;;;;;0.02;100.00;100301.28;4501491;31;20457;-74
2024/01/28 02:30:28;;;;;;;11.20;2.03;;;;;;;0.06;100.00;100309.78;4494940;31;20103;-74
2024/01/28 02:33:01;;;;;;;10.85;2.15;;;;;;;0.08;100.00;100305.47;4485581;31;20088;-74
2024/01/28 02:35:29;;;;;;;4.82;1.90;;;;;;;0.08;100.00;100295.16;4485811;31;20100;-74
2024/01/28 02:37:56;;;;;;;6.65;2.47;;;;;;;0.13;100.00;100299.31;4485788;31;20118;-74
2024/01/28 02:40:24;;;;;;;6.95;2.42;;;;;;;0.20;100.00;100300.03;4485958;31;20077;-74
2024/01/28 02:42:51;;;;;;;12.37;2.60;;;;;;;0.22;100.00;100315.47;4486096;31;20306;-74
2024/01/28 02:45:19;;;;;;;4.85;1.75;;;;;;;0.15;100.00;100325.91;4485822;31;20122;-74
2024/01/28 02:47:48;;;;;;;12.60;2.17;;;;;;;0.14;100.00;100329.34;4485770;31;20097;-74
2024/01/28 02:50:17;;;;;;;9.88;2.60;;;;;;;0.15;100.00;100341.38;4485807;31;20111;-74
2024/01/28 02:52:45;;;;;;;5.93;2.10;;;;;;;0.20;100.00;100338.69;4485942;31;20092;-74
2024/01/28 02:55:17;;;;;;;5.93;1.85;;;;;;;0.13;100.00;100327.66;4485714;31;20089;-74
2024/01/28 02:57:45;;;;;;;6.87;2.30;;;;;;;0.11;100.00;100337.16;4485649;31;20093;-74
2024/01/28 03:00:13;;;;;;;7.30;2.33;;;;;;;0.04;100.00;100320.12;4485695;31;20111;-74
2024/01/28 03:02:41;;;;;;;6.07;2.17;;;;;;;0.09;100.00;100317.44;4485493;31;20116;-74
2024/01/28 03:05:10;;;;;;;5.45;2.22;;;;;;;0.10;100.00;100325.13;4485582;31;20499;-74
2024/01/28 03:07:39;;;;;;;12.55;2.37;;;;;;;0.16;100.00;100335.31;4485519;31;20167;-74
2024/01/28 03:10:06;;;;;;;9.45;2.78;;;;;;;0.11;100.00;100332.00;4485392;31;20156;-74
2024/01/28 03:12:34;;;;;;;5.68;2.10;;;;;;;0.08;100.00;100324.34;4485431;31;20148;-74
2024/01/28 03:15:03;;;;;;;5.45;1.85;;;;;;;0.10;100.00;100332.88;4485351;31;20093;-74
2024/01/28 03:17:31;;;;;;;8.23;2.58;;;;;;;0.05;100.00;100323.56;4485448;31;20118;-74
2024/01/28 03:19:59;;;;;;;8.20;2.65;;;;;;;0.09;100.00;100331.19;4499532;31;20096;-74
2024/01/28 03:22:27;;;;;;;4.25;1.25;;;;;;;0.10;100.00;100324.31;4501043;31;20096;-74
2024/01/28 03:24:54;;;;;;;10.88;2.55;;;;;;;0.19;100.00;100334.41;4501104;31;20481;-74
2024/01/28 03:27:22;;;;;;;5.80;2.22;;;;;;;0.19;100.00;100331.00;4501329;31;20151;-74
2024/01/28 03:29:50;;;;;;;13.88;1.92;;;;;;;0.13;100.00;100327.66;4498342;31;20481;-74
2024/01/28 03:32:18;;;;;;;9.40;2.55;;;;;;;0.16;100.00;100339.63;4485310;31;20466;-74
2024/01/28 03:34:45;;;;;;;4.70;2.12;;;;;;;0.17;100.00;100331.03;4484256;32;20149;-74
2024/01/28 03:37:13;;;;;;;7.05;2.90;;;;;;;0.13;100.00;100337.12;4485440;31;20448;-74
2024/01/28 03:39:41;;;;;;;5.45;1.62;;;;;;;0.08;100.00;100331.22;4485271;31;20093;-74
2024/01/28 03:42:11;;;;;;;4.35;1.92;;;;;;;0.08;100.00;100342.37;4485357;31;20454;-74
2024/01/28 03:44:39;;;;;;;3.60;1.85;;;;;;;0.09;100.00;100338.94;4485303;31;20438;-74
2024/01/28 03:47:06;;;;;;;7.80;2.20;;;;;;;0.08;100.00;100333.81;4485201;31;20096;-74
2024/01/28 03:49:35;;;;;;;5.95;1.95;;;;;;;0.03;100.00;100339.06;4485022;31;20381;-74
2024/01/28 03:52:03;;;;;;;5.45;1.85;;;;;;;0.04;100.00;100351.03;4485207;31;20120;-74
2024/01/28 03:54:30;;;;;;;7.78;2.45;;;;;;;0.02;100.00;100339.94;4485219;31;20389;-74
2024/01/28 03:56:58;;;;;;;5.90;2.05;;;;;;;-0.03;100.00;100334.00;4485155;31;20088;-74
2024/01/28 03:59:27;;;;;;;10.45;3.40;;;;;;;0.02;100.00;100339.94;4485015;31;20492;-74
2024/01/28 04:01:55;;;;;;;7.60;1.95;;;;;;;0.05;100.00;100336.44;4485101;31;20117;-74
2024/01/28 04:04:23;;;;;;;7.93;2.50;;;;;;;0.05;100.00;100329.56;4484858;31;20124;-74
2024/01/28 04:06:52;;;;;;;8.13;3.20;;;;;;;0.07;100.00;100330.34;4485472;31;20092;-74
2024/01/28 04:09:19;;;;;;;6.15;2.20;;;;;;;0.03;100.00;100340.75;4484853;31;20142;-74
2024/01/28 04:11:47;;;;;;;8.52;2.22;;;;;;;0.10;100.00;100339.75;4485010;31;20161;-74
2024/01/28 04:14:15;;;;;;;11.15;2.37;;;;;;;0.09;100.00;100338.94;4484879;31;20130;-74
2024/01/28 04:16:43;;;;;;;4.87;2.40;;;;;;;0.10;100.00;100339.75;4485171;32;20107;-74
2024/01/28 04:19:11;;;;;;;8.10;2.12;;;;;;;0.13;100.00;100334.53;4493968;31;20510;-74
2024/01/28 04:21:41;;;;;;;6.32;2.17;;;;;;;0.11;100.00;100342.31;4501001;31;20088;-74
2024/01/28 04:24:09;;;;;;;7.43;2.28;;;;;;;0.17;100.00;100338.75;4500578;31;20164;-74
2024/01/28 04:26:36;;;;;;;9.93;3.75;;;;;;;0.21;100.00;100335.22;4500799;31;20091;-74
2024/01/28 04:29:04;;;;;;;3.75;2.10;;;;;;;0.31;100.00;100338.47;4500584;31;20476;-74
2024/01/28 04:31:32;;;;;;;7.85;2.35;;;;;;;0.32;100.00;100347.91;4486884;31;20096;-74
2024/01/28 04:34:00;;;;;;;8.38;2.80;;;;;;;0.36;100.00;100341.78;4484808;31;20156;-74
2024/01/28 04:36:28;;;;;;;4.93;2.30;;;;;;;0.38;100.00;100357.22;4484591;31;20537;-74
2024/01/28 04:38:56;;;;;;;11.65;2.85;;;;;;;0.32;100.00;100364.19;4484889;31;20560;-74
2024/01/28 04:41:24;;;;;;;7.62;2.53;;;;;;;0.32;100.00;100358.22;4484754;31;20425;-74
2024/01/28 04:43:52;;;;;;;7.75;3.22;;;;;;;0.30;100.00;100357.38;4485092;31;20088;-74
2024/01/28 04:46:19;;;;;;;5.95;2.15;;;;;;;0.27;100.00;100368.63;4484641;31;20125;-74
2024/01/28 04:48:47;;;;;;;10.02;2.40;;;;;;;0.22;100.00;100364.44;4484819;31;20139;-74
2024/01/28 04:51:15;;;;;;;14.65;4.07;;;;;;;0.18;100.00;100361.06;4484571;31;20641;-74
2024/01/28 04:53:42;;;;;;;7.85;2.53;;;;;;;0.19;100.00;100374.81;4484719;31;20119;-74
2024/01/28 04:56:11;;;;;;;8.27;2.78;;;;;;;0.16;100.00;100380.88;4484601;31;20196;-74
2024/01/28 04:58:40;;;;;;;5.60;2.28;;;;;;;0.13;100.00;100391.25;4485011;31;20096;-74
2024/01/28 05:01:07;;;;;;;13.48;2.80;;;;;;;0.09;100.00;100385.31;4484852;31;20124;-74
2024/01/28 05:03:36;;;;;;;11.68;3.10;;;;;;;0.00;100.00;100403.53;4484786;31;20104;-74
2024/01/28 05:06:04;;;;;;;10.02;2.50;;;;;;;-0.06;100.00;100401.91;4484914;31;20088;-74
2024/01/28 05:08:32;;;;;;;7.25;2.70;;;;;;;-0.09;100.00;100401.97;4484600;31;20506;-74
2024/01/28 05:11:00;;;;;;;14.73;3.22;;;;;;;-0.11;100.00;100403.72;4484509;32;20096;-75
2024/01/28 05:13:27;;;;;;;7.62;2.67;;;;;;;-0.09;100.00;100403.69;4484591;31;20127;-74
2024/01/28 05:15:56;;;;;;;7.65;2.65;;;;;;;-0.16;100.00;100409.84;4484614;31;20122;-74
2024/01/28 05:18:24;;;;;;;8.13;2.87;;;;;;;-0.13;100.00;100413.19;4488348;31;20091;-74
2024/01/28 05:20:52;;;;;;;8.30;2.92;;;;;;;-0.19;100.00;100401.28;4500305;31;20373;-74
2024/01/28 05:23:19;;;;;;;8.82;2.80;;;;;;;-0.15;100.00;100406.37;4500388;31;20100;-74
2024/01/28 05:25:47;;;;;;;16.30;2.72;;;;;;;-0.22;100.00;100406.50;4500105;31;20412;-74
2024/01/28 05:28:15;;;;;;;11.52;3.40;;;;;;;-0.22;100.00;100418.53;4500601;31;20100;-74
2024/01/28 05:30:42;;;;;;;7.65;3.30;;;;;;;-0.17;100.00;100408.12;4492156;31;20131;-74
2024/01/28 05:33:10;;;;;;;10.13;2.80;;;;;;;-0.22;100.00;100413.37;4484517;31;20144;-74
2024/01/28 05:35:38;;;;;;;15.27;4.45;;;;;;;-0.22;100.00;100418.53;4484218;31;20572;-74
2024/01/28 05:38:05;;;;;;;6.43;2.30;;;;;;;-0.24;100.00;100426.28;4484338;31;20089;-74
2024/01/28 05:40:33;;;;;;;5.85;2.55;;;;;;;-0.22;100.00;100429.66;4484476;31;20466;-74
2024/01/28 05:43:01;;;;;;;7.03;2.70;;;;;;;-0.22;100.00;100418.53;4484700;31;20157;-74
2024/01/28 05:45:28;;;;;;;12.68;2.75;;;;;;;-0.24;100.00;100425.44;4484278;31;20422;-74
2024/01/28 05:48:01;;;;;;;10.77;3.25;;;;;;;-0.26;100.00;100422.03;4484301;31;20454;-74
2024/01/28 05:50:30;;;;;;;7.85;2.85;;;;;;;-0.29;100.00;100430.66;4484083;31;20092;-74
2024/01/28 05:52:57;;;;;;;7.45;3.10;;;;;;;-0.27;100.00;100425.47;4484507;31;20097;-74
2024/01/28 05:55:25;;;;;;;12.68;3.50;;;;;;;-0.29;100.00;100422.09;4484112;31;20160;-74
2024/01/28 05:57:55;;;;;;;8.30;3.12;;;;;;;-0.29;100.00;100428.06;4484762;31;20089;-75
2024/01/28 06:00:22;;;;;;;9.25;3.17;;;;;;;-0.29;100.00;100429.81;4489295;31;20161;-74
2024/01/28 06:02:50;;;;;;;7.18;2.65;;;;;;;-0.20;100.00;100419.34;4489568;31;20088;-74
2024/01/28 06:05:18;;;;;;;9.68;2.92;;;;;;;-0.23;100.00;100428.00;4489357;31;20162;-74
2024/01/28 06:07:45;;;;;;;10.15;3.10;;;;;;;-0.26;100.00;100433.19;4489102;31;20080;-74
2024/01/28 06:10:13;;;;;;;10.25;3.72;;;;;;;-0.25;100.00;100429.72;4489068;31;20712;-74
2024/01/28 06:12:41;;;;;;;9.20;3.08;;;;;;;-0.25;100.00;100436.63;4489051;31;20084;-74
2024/01/28 06:15:09;;;;;;;7.90;3.00;;;;;;;-0.21;100.00;100435.69;4489039;31;20088;-74
2024/01/28 06:17:36;;;;;;;6.90;2.72;;;;;;;-0.24;100.00;100436.59;4488781;31;20118;-74
2024/01/28 06:20:08;;;;;;;10.15;3.75;;;;;;;-0.27;100.00;100452.09;4504124;31;20449;-74
2024/01/28 06:22:36;;;;;;;9.68;3.85;;;;;;;-0.33;100.00;100439.31;4504719;31;20096;-74
2024/01/28 06:25:06;;;;;;;17.87;3.53;;;;;;;-0.31;100.00;100453.00;4504893;31;20410;-74
2024/01/28 06:27:34;;;;;;;14.45;3.55;;;;;;;-0.32;100.00;100460.75;4504595;31;20110;-74
2024/01/28 06:30:01;;;;;;;13.57;3.15;;;;;;;-0.36;100.00;100468.53;4500892;31;20659;-74
2024/01/28 06:32:29;;;;;;;10.90;3.97;;;;;;;-0.34;100.00;100477.97;4488920;32;20092;-74
2024/01/28 06:34:57;;;;;;;8.43;3.37;;;;;;;-0.33;100.00;100485.69;4482966;31;190332;-74
2024/01/28 06:37:24;;;;;;;12.80;3.67;;;;;;;-0.30;100.00;100485.63;4488936;31;20532;-74
2024/01/28 06:39:52;;;;;;;6.72;3.35;;;;;;;-0.33;100.00;100485.69;4488901;31;20115;-74
2024/01/28 06:42:20;;;;;;;11.50;3.40;;;;;;;-0.25;100.00;100481.22;4488652;31;20402;-74
2024/01/28 06:44:48;;;;;;;17.75;4.43;;;;;;;-0.22;100.00;100485.50;4488718;31;20112;-74
2024/01/28 06:47:16;;;;;;;7.00;3.40;;;;;;;-0.19;100.00;100491.44;4488384;31;20530;-74
2024/01/28 06:49:45;;;;;;;9.25;3.72;;;;;;;-0.08;100.00;100486.09;4488600;31;20131;-74
2024/01/28 06:52:13;;;;;;;9.40;2.83;;;;;;;0.06;100.00;100483.28;4488564;31;20119;-74
2024/01/28 06:54:41;;;;;;;5.68;2.97;;;;;;;0.16;100.00;100478.78;4488561;31;20104;-74
2024/01/28 06:57:15;;;;;;;9.18;3.15;;;;;;;0.29;100.00;100482.84;4488321;31;20068;-74
2024/01/28 06:59:44;;;;;;;14.87;3.37;;;;;;;0.41;100.00;100486.03;4488441;32;20093;-74
2024/01/28 07:02:12;;;;;;;7.30;3.15;;;;;;;0.44;100.00;100493.72;4488282;31;20118;-74
2024/01/28 07:04:39;;;;;;;11.23;3.37;;;;;;;0.49;100.00;100494.50;4488587;31;20088;-74
2024/01/28 07:07:08;;;;;;;8.52;3.28;;;;;;;0.53;100.00;100496.97;4488271;31;20156;-74
2024/01/28 07:09:36;;;;;;;7.22;3.12;;;;;;;0.53;100.00;100498.72;4486573;31;20469;-75
2024/01/28 07:12:06;;;;;;;11.32;2.90;;;;;;;0.63;100.00;100499.38;4485516;31;20088;-75
2024/01/28 07:14:37;;;;;;;8.13;3.50;;;;;;;0.61;100.00;100501.97;4485688;31;20163;-74
2024/01/28 07:17:05;;;;;;;7.28;2.85;;;;;;;0.65;100.00;100495.00;4485300;31;20165;-74
2024/01/28 07:19:37;;;;;;;10.48;3.55;;;;;;;0.71;100.00;100494.87;4497201;31;20104;-74
2024/01/28 07:22:05;;;;;;;5.93;3.10;;;;;;;0.70;100.00;100490.63;4501036;31;20096;-74
2024/01/28 07:24:33;;;;;;;9.70;2.90;;;;;;;0.78;100.00;100487.87;4501366;31;20152;-74
2024/01/28 07:27:01;;;;;;;11.80;3.53;;;;;;;0.91;100.00;100496.19;4501047;31;20546;-74
2024/01/28 07:29:35;;;;;;;5.35;2.72;;;;;;;0.96;100.00;100492.62;4500053;31;20556;-74
2024/01/28 07:32:03;;;;;;;6.82;3.22;;;;;;;1.02;100.00;100491.66;4485640;32;20092;-74
2024/01/28 07:34:31;;;;;;;7.43;2.80;;;;;;;1.10;100.00;100494.06;4485287;31;20100;-74
2024/01/28 07:36:59;;;;;;;5.55;2.75;;;;;;;1.13;100.00;100494.84;4485621;31;20148;-74
2024/01/28 07:39:27;;;;;;;11.65;3.37;;;;;;;1.14;100.00;100495.72;4485469;31;20104;-74
2024/01/28 07:41:56;;;;;;;8.38;3.25;;;;;;;1.15;100.00;100489.66;4485656;31;20123;-74
2024/01/28 07:44:25;;;;;;;14.75;3.35;;;;;;;1.15;100.00;100487.94;4485222;31;20666;-74
2024/01/28 07:46:53;;;;;;;7.62;2.95;;;;;;;1.22;100.00;100488.63;4485190;31;20210;-74
2024/01/28 07:49:22;;;;;;;12.07;3.37;;;;;;;1.29;100.00;100499.66;4485081;31;20164;-74
2024/01/28 07:51:50;;;;;;;13.00;3.67;;;;;;;1.33;100.00;100490.97;4485182;31;20419;-74
2024/01/28 07:54:18;;;;;;;10.98;3.58;;;;;;;1.37;100.00;100497.75;4485190;31;20520;-74
2024/01/28 07:56:46;;;;;;;10.60;4.05;;;;;;;1.35;100.00;100499.53;4485101;31;20107;-74
2024/01/28 07:59:13;;;;;;;12.77;3.70;;;;;;;1.35;100.00;100499.53;4485190;31;20092;-74
2024/01/28 08:01:41;;;;;;;5.25;2.78;;;;;;;1.48;100.00;100500.09;4485546;31;20092;-75
2024/01/28 08:04:08;;;;;;;10.70;2.78;;;;;;;1.44;100.00;100501.91;4485026;31;20118;-74
2024/01/28 08:06:37;;;;;;;8.88;3.20;;;;;;;1.53;100.00;100509.41;4485220;31;20106;-74
2024/01/28 08:09:06;;;;;;;8.00;3.37;;;;;;;1.62;100.00;100500.59;4484929;31;20088;-74
2024/01/28 08:11:35;;;;;;;10.02;2.70;;;;;;;1.71;100.00;100505.53;4485074;31;20097;-75
2024/01/28 08:14:03;;;;;;;5.68;3.03;;;;;;;1.76;100.00;100511.44;4484919;31;20088;-74
2024/01/28 08:16:31;;;;;;;6.93;2.58;;;;;;;1.83;100.00;100511.28;4485004;31;20493;-74
2024/01/28 08:18:59;;;;;;;8.05;3.25;;;;;;;1.98;100.00;100521.22;4492657;31;20179;-74
2024/01/28 08:21:27;;;;;;;8.98;3.55;;;;;;;1.98;100.00;100522.97;4500389;31;20088;-74
2024/01/28 08:23:55;;;;;;;6.78;3.45;;;;;;;1.94;100.00;100528.22;4500705;31;20520;-74
2024/01/28 08:26:25;;;;;;;4.22;2.78;;;;;;;1.96;100.00;100533.34;4500830;31;20092;-74
2024/01/28 08:28:54;;;;;;;13.88;3.20;;;;;;;2.03;100.00;100545.25;4500704;31;20473;-74
2024/01/28 08:31:22;;;;;;;10.50;3.33;;;;;;;2.11;100.00;100545.03;4487975;31;20096;-74
2024/01/28 08:33:50;;;;;;;12.88;3.55;;;;;;;2.11;100.00;100548.47;4484690;31;20089;-75
2024/01/28 08:36:18;;;;;;;10.50;3.78;;;;;;;2.09;100.00;100549.37;4484656;32;20092;-74
2024/01/28 08:38:46;;;;;;;6.25;3.53;;;;;;;2.19;100.00;100543.09;4484675;31;20104;-74
2024/01/28 08:41:15;;;;;;;17.00;3.80;;;;;;;2.23;100.00;100542.13;4484858;31;20466;-74
2024/01/28 08:43:44;;;;;;;16.50;4.32;;;;;;;2.21;100.00;100541.34;4484683;31;20088;-74
2024/01/28 08:46:13;;;;;;;8.85;3.33;;;;;;;2.31;100.00;100549.69;4484796;31;20111;-75
2024/01/28 08:48:41;;;;;;;7.90;3.72;;;;;;;2.38;100.00;100552.97;4484572;31;20160;-74
2024/01/28 08:51:09;;;;;;;11.52;4.30;;;;;;;2.56;100.00;100554.19;4485076;31;20095;-74
2024/01/28 08:53:39;;;;;;;12.40;5.00;;;;;;;2.60;100.00;100566.16;4484589;31;20587;-74
2024/01/28 08:56:07;;;;;;;6.75;3.28;;;;;;;2.54;100.00;100567.16;4484733;31;20093;-75
2024/01/28 08:58:37;;;;;;;18.27;3.60;;;;;;;2.73;100.00;100571.84;4484731;31;20114;-75
2024/01/28 09:01:06;;;;;;;11.07;4.32;;;;;;;2.87;100.00;100584.41;4484774;31;20525;-75
2024/01/28 09:03:33;;;;;;;15.02;6.32;;;;;;;2.88;100.00;100589.53;4484868;31;20084;-75
2024/01/28 09:06:02;;;;;;;12.70;5.10;;;;;;;2.89;100.00;100588.63;4484669;31;20115;-74
2024/01/28 09:08:34;;;;;;;6.65;3.47;;;;;;;2.91;100.00;100589.44;4483657;32;20555;-75
2024/01/28 09:11:02;;;;;;;11.77;4.30;;;;;;;2.97;100.00;100589.28;4484655;31;20145;-74
2024/01/28 09:13:30;;;;;;;8.35;3.53;;;;;;;3.10;100.00;100597.53;4484663;31;20108;-75
2024/01/28 09:15:58;;;;;;;16.60;3.17;;;;;;;3.06;100.00;100595.06;4484573;31;20096;-74
2024/01/28 09:18:28;;;;;;;12.23;3.80;;;;;;;2.97;100.00;100610.00;4488688;31;20092;-74
2024/01/28 09:20:55;;;;;;;11.98;3.67;;;;;;;2.99;100.00;100600.44;4500205;31;20124;-74
2024/01/28 09:23:23;;;;;;;9.93;4.10;;;;;;;3.12;100.00;100598.34;4500362;31;20084;-75
2024/01/28 09:25:52;;;;;;;7.45;3.20;;;;;;;3.26;100.00;100607.47;4500505;31;20125;-75
2024/01/28 09:28:19;;;;;;;9.50;3.62;;;;;;;3.32;100.00;100610.72;4500466;31;20118;-75
2024/01/28 09:30:47;;;;;;;12.30;4.53;;;;;;;3.51;100.00;100607.56;4491139;31;20104;-75
2024/01/28 09:33:15;;;;;;;11.15;3.15;;;;;;;3.61;100.00;100619.34;4483494;31;20142;-75
2024/01/28 09:35:44;;;;;;;7.37;3.30;;;;;;;3.52;100.00;100615.28;4484036;31;20104;-75
2024/01/28 09:38:11;;;;;;;13.62;3.50;;;;;;;3.65;100.00;100622.69;4484531;31;20448;-75
2024/01/28 09:40:40;;;;;;;8.52;3.42;;;;;;;3.61;100.00;100621.94;4484274;31;20084;-75
2024/01/28 09:43:19;;;;;;;14.07;4.00;;;;;;;3.64;100.00;100624.44;4484306;31;20465;-75
2024/01/28 09:45:49;;;;;;;6.57;3.30;;;;;;;3.82;100.00;100623.00;4484103;32;20076;-74
2024/01/28 09:48:16;;;;;;;16.58;3.72;;;;;;;3.83;100.00;100623.84;4483175;32;20096;-75
2024/01/28 09:50:44;;;;;;;8.52;3.22;;;;;;;3.79;100.00;100638.66;4484172;31;20092;-75
2024/01/28 09:53:15;;;;;;;4.72;2.10;;;;;;;3.81;100.00;100636.03;4484383;31;20089;-75
2024/01/28 09:55:42;;;;;;;10.18;3.22;;;;;;;3.76;100.00;100635.34;4484347;31;20089;-75
2024/01/28 09:58:10;;;;;;;6.35;2.87;;;;;;;3.94;100.00;100632.16;4484173;31;20442;-75
2024/01/28 10:00:39;;;;;;;5.43;2.78;;;;;;;3.91;100.00;100633.09;4483877;32;20092;-75
2024/01/28 10:03:07;;;;;;;6.78;3.30;;;;;;;4.00;100.00;100629.38;4482939;32;20096;-75
2024/01/28 10:05:35;;;;;;;5.75;2.72;;;;;;;4.03;100.00;100637.03;4484262;31;20118;-75
2024/01/28 10:08:04;;;;;;;8.02;3.33;;;;;;;3.87;100.00;100634.06;4484107;31;20100;-75
2024/01/28 10:10:35;;;;;;;8.70;3.35;;;;;;;3.87;100.00;100623.69;4484018;31;20093;-75
2024/01/28 10:13:06;;;;;;;8.02;3.60;;;;;;;4.00;100.00;100629.38;4483910;31;20081;-75
2024/01/28 10:15:34;;;;;;;8.30;2.30;;;;;;;4.22;100.00;100628.66;4483887;31;20110;-75
2024/01/28 10:18:03;;;;;;;8.07;3.12;;;;;;;4.24;100.00;100626.87;4485289;31;20153;-75
2024/01/28 10:20:30;;;;;;;4.78;2.22;;;;;;;4.42;100.00;100636.63;4499535;31;20088;-75
2024/01/28 10:23:02;;;;;;;7.90;3.10;;;;;;;4.43;100.00;100620.16;4499943;31;20351;-75
2024/01/28 10:25:30;;;;;;;9.80;2.87;;;;;;;4.41;100.00;100626.31;4498135;31;20107;-75
2024/01/28 10:27:59;;;;;;;6.87;2.53;;;;;;;4.45;100.00;100614.91;4495594;31;20122;-75
2024/01/28 10:30:27;;;;;;;10.38;3.15;;;;;;;4.49;100.00;100616.50;4490790;31;20088;-75
2024/01/28 10:32:55;;;;;;;8.18;3.05;;;;;;;4.52;100.00;100620.75;4483695;31;20530;-74
2024/01/28 10:35:24;;;;;;;9.30;2.60;;;;;;;4.39;100.00;100618.56;4483489;31;20119;-75
2024/01/28 10:37:54;;;;;;;8.15;2.92;;;;;;;4.43;100.00;100620.16;4483333;31;20491;-75
2024/01/28 10:40:29;;;;;;;8.55;2.72;;;;;;;4.43;100.00;100614.94;4480678;32;20455;-75
2024/01/28 10:43:00;;;;;;;5.03;2.55;;;;;;;4.59;100.00;100609.25;4483598;31;20160;-75
2024/01/28 10:45:29;;;;;;;8.23;2.90;;;;;;;4.69;100.00;100599.37;4485036;31;20099;-75
2024/01/28 10:48:16;;;;;;;7.97;2.58;;;;;;;4.71;100.00;100598.44;4485685;31;20156;-75
2024/01/28 10:50:44;;;;;;;14.52;2.83;;;;;;;4.89;100.00;100603.84;4485351;31;20084;-75
2024/01/28 10:53:15;;;;;;;4.07;2.28;;;;;;;5.02;100.00;100597.31;4485887;31;20084;-75
2024/01/28 10:55:59;;;;;;;5.43;2.10;;;;;;;5.00;100.00;100596.53;4484409;32;20434;-75
2024/01/28 10:58:30;;;;;;;3.20;2.22;;;;;;;5.08;100.00;100589.28;4484402;32;20108;-75
2024/01/28 11:00:57;;;;;;;4.10;2.45;;;;;;;5.32;100.00;100581.50;4485515;31;20454;-75
2024/01/28 11:03:25;;;;;;;9.27;2.72;;;;;;;5.20;100.00;100585.41;4485615;31;20549;-75
2024/01/28 11:05:59;;;;;;;4.65;2.58;;;;;;;5.06;100.00;100588.53;4485655;31;20487;-75
2024/01/28 11:08:29;;;;;;;5.07;2.25;;;;;;;5.15;100.00;100588.16;4484297;32;20169;-75
2024/01/28 11:11:01;;;;;;;8.68;2.80;;;;;;;5.31;100.00;100590.19;4484186;32;20092;-75
2024/01/28 11:13:28;;;;;;;8.90;2.83;;;;;;;5.30;100.00;100591.12;4485432;32;20157;-75
2024/01/28 11:15:55;;;;;;;7.70;2.87;;;;;;;5.29;100.00;100592.84;4485477;32;20126;-75
2024/01/28 11:18:31;;;;;;;5.50;2.58;;;;;;;5.46;100.00;100584.38;4485445;32;20131;-75
2024/01/28 11:21:13;;;;;;;7.12;1.90;;;;;;;5.55;100.00;100584.97;4485269;31;20129;-75
2024/01/28 11:23:43;;;;;;;8.23;2.55;;;;;;;5.63;100.00;100585.50;4485333;31;20454;-75
2024/01/28 11:26:18;;;;;;;9.60;2.33;;;;;;;5.47;100.00;100588.69;4485212;31;20814;-75
2024/01/28 11:28:50;;;;;;;9.98;2.53;;;;;;;5.54;100.00;100586.72;4485501;31;20110;-75